Time;durP1;ratioP1;P1;durP2;ratioP2;P2;SDS_P1;SDS_P2;PMS_P1;PMS_P2;Temp;Humidity;BMP_temperature;BMP_pressure;BME280_temperature;BME280_humidity;BME280_pressure;Samples;Min_cycle;Max_cycle;Signal;HPM_P1;HPM_P2
2024/03/07 00:00:22;;;;;;;25.97;18.20;;;10.80;99.90;;;;;;4943505;29;20415;-29
2024/03/07 00:02:50;;;;;;;29.60;17.63;;;10.80;99.90;;;;;;4942899;29;20432;-27
2024/03/07 00:05:18;;;;;;;31.03;18.83;;;10.70;99.90;;;;;;4943431;28;20442;-30
2024/03/07 00:07:47;;;;;;;26.27;17.33;;;10.70;99.90;;;;;;4942732;29;20498;-27
2024/03/07 00:10:15;;;;;;;33.20;18.57;;;10.80;99.90;;;;;;4942678;29;20825;-25
2024/03/07 00:12:41;;;;;;;25.53;17.97;;;10.70;99.90;;;;;;4925543;29;21098;-25
2024/03/07 00:15:08;;;;;;;24.70;17.10;;;10.70;99.90;;;;;;4942776;28;20471;-30
2024/03/07 00:17:42;;;;;;;29.33;18.03;;;10.70;99.90;;;;;;4925557;29;20538;-30
2024/03/07 00:20:13;;;;;;;25.67;16.90;;;10.70;99.90;;;;;;4925157;29;20427;-29
2024/03/07 00:22:43;;;;;;;24.90;18.17;;;10.70;99.90;;;;;;4942470;29;20455;-30
2024/03/07 00:25:12;;;;;;;27.07;18.70;;;10.70;99.90;;;;;;4925649;29;20538;-26
2024/03/07 00:27:38;;;;;;;26.87;17.80;;;10.70;99.90;;;;;;4925609;29;21375;-27
2024/03/07 00:30:13;;;;;;;25.60;18.40;;;10.70;99.90;;;;;;4943557;29;20955;-30
2024/03/07 00:32:40;;;;;;;25.10;18.13;;;10.70;99.90;;;;;;4943423;29;20446;-27
2024/03/07 00:35:08;;;;;;;27.47;18.33;;;10.70;99.90;;;;;;4943619;28;21247;-29
2024/03/07 00:37:37;;;;;;;25.40;16.97;;;10.60;99.90;;;;;;4943734;29;21293;-30
2024/03/07 00:40:04;;;;;;;22.67;16.10;;;10.60;99.90;;;;;;4943847;29;20949;-25
2024/03/07 00:42:30;;;;;;;25.20;18.00;;;10.60;99.90;;;;;;4944358;29;20454;-29
2024/03/07 00:44:56;;;;;;;27.60;17.87;;;10.60;99.90;;;;;;4926633;29;21199;-28
2024/03/07 00:47:23;;;;;;;25.23;17.17;;;10.60;99.90;;;;;;4926828;29;20407;-25
2024/03/07 00:49:54;;;;;;;23.93;16.27;;;10.60;99.90;;;;;;4926753;29;21345;-31
2024/03/07 00:52:20;;;;;;;25.93;17.73;;;10.60;99.90;;;;;;4927370;29;20431;-28
2024/03/07 00:54:49;;;;;;;24.63;18.30;;;10.60;99.90;;;;;;4926844;29;20452;-28
2024/03/07 00:57:18;;;;;;;26.70;18.30;;;10.60;99.90;;;;;;4944451;29;20818;-29
2024/03/07 00:59:43;;;;;;;26.50;16.97;;;10.60;99.90;;;;;;4944120;29;20419;-30
2024/03/07 01:02:10;;;;;;;24.97;17.60;;;10.50;99.90;;;;;;4926948;29;20493;-30
2024/03/07 01:04:36;;;;;;;24.83;17.20;;;10.50;99.90;;;;;;4944309;28;20534;-29
2024/03/07 01:07:03;;;;;;;26.17;17.67;;;10.50;99.90;;;;;;4927189;29;20438;-30
2024/03/07 01:09:30;;;;;;;25.83;17.93;;;10.50;99.90;;;;;;4926401;29;21021;-29
2024/03/07 01:11:56;;;;;;;23.83;17.30;;;10.50;99.90;;;;;;4943952;29;20526;-28
2024/03/07 01:14:23;;;;;;;23.37;16.10;;;10.50;99.90;;;;;;4943333;28;20435;-29
2024/03/07 01:16:49;;;;;;;23.70;16.33;;;10.50;99.90;;;;;;4944329;29;20479;-32
2024/03/07 01:19:16;;;;;;;28.23;18.10;;;10.50;99.90;;;;;;4944141;29;20419;-28
2024/03/07 01:21:42;;;;;;;26.00;18.00;;;10.50;99.90;;;;;;4944652;29;20423;-27
2024/03/07 01:24:09;;;;;;;24.93;16.93;;;10.50;99.90;;;;;;4943860;29;20443;-31
2024/03/07 01:26:35;;;;;;;26.27;18.40;;;10.40;99.90;;;;;;4927118;29;20455;-33
2024/03/07 01:29:04;;;;;;;26.10;17.40;;;10.40;99.90;;;;;;4943995;29;20427;-28
2024/03/07 01:31:30;;;;;;;27.33;17.33;;;10.40;99.90;;;;;;4910956;29;20419;-24
2024/03/07 01:33:56;;;;;;;27.17;18.87;;;10.40;99.90;;;;;;4927146;29;20431;-32
2024/03/07 01:36:26;;;;;;;24.00;16.97;;;10.40;99.90;;;;;;4949165;28;20540;-25
2024/03/07 01:38:54;;;;;;;29.30;18.90;;;10.40;99.90;;;;;;4950427;28;20427;-26
2024/03/07 01:41:22;;;;;;;27.57;18.57;;;10.40;99.90;;;;;;4932500;29;20482;-28
2024/03/07 01:43:49;;;;;;;27.80;18.70;;;10.40;99.90;;;;;;4951123;28;20455;-28
2024/03/07 01:46:15;;;;;;;26.60;18.03;;;10.40;99.90;;;;;;4948285;29;20554;-25
2024/03/07 01:48:44;;;;;;;29.00;18.90;;;10.40;99.90;;;;;;4931273;29;20431;-31
2024/03/07 01:51:13;;;;;;;28.27;18.90;;;10.40;99.90;;;;;;4930847;29;20434;-31
2024/03/07 01:53:42;;;;;;;34.37;20.47;;;10.30;99.90;;;;;;4914987;29;20939;-28
2024/03/07 01:56:09;;;;;;;29.80;20.33;;;10.40;99.90;;;;;;4899777;29;20483;-28
2024/03/07 01:58:36;;;;;;;26.60;18.20;;;10.30;99.90;;;;;;4931924;29;20411;-31
2024/03/07 02:01:05;;;;;;;30.93;18.50;;;10.30;99.90;;;;;;4932567;29;20446;-27
2024/03/07 02:03:32;;;;;;;30.90;18.80;;;10.30;99.90;;;;;;4949014;29;20834;-30
2024/03/07 02:05:58;;;;;;;29.13;20.17;;;10.30;99.90;;;;;;4948743;29;20486;-28
2024/03/07 02:08:26;;;;;;;35.23;20.67;;;10.30;99.90;;;;;;4947861;29;20420;-27
2024/03/07 02:10:52;;;;;;;30.73;19.97;;;10.30;99.90;;;;;;4929546;29;20546;-30
2024/03/07 02:13:18;;;;;;;35.63;20.00;;;10.30;99.90;;;;;;4929791;29;20431;-27
2024/03/07 02:15:44;;;;;;;33.00;19.90;;;10.30;99.90;;;;;;4946412;29;20475;-32
2024/03/07 02:18:10;;;;;;;33.13;19.90;;;10.30;99.90;;;;;;4946469;29;21014;-28
2024/03/07 02:20:40;;;;;;;33.50;21.27;;;10.30;99.90;;;;;;4946494;29;20519;-27
2024/03/07 02:23:08;;;;;;;29.60;20.10;;;10.30;99.90;;;;;;4945658;28;20431;-28
2024/03/07 02:25:37;;;;;;;29.33;21.03;;;10.30;99.90;;;;;;4943453;28;20825;-33
2024/03/07 02:28:12;;;;;;;34.47;20.23;;;10.30;99.90;;;;;;4944848;28;20513;-26
2024/03/07 02:30:40;;;;;;;31.13;20.87;;;10.30;99.90;;;;;;4943019;28;20428;-28
2024/03/07 02:33:09;;;;;;;31.93;20.80;;;10.30;99.90;;;;;;4943818;28;20427;-30
2024/03/07 02:35:35;;;;;;;35.13;21.67;;;10.30;99.90;;;;;;4943354;28;20558;-27
2024/03/07 02:38:05;;;;;;;30.30;20.90;;;10.30;99.90;;;;;;4930115;29;20444;-30
2024/03/07 02:40:32;;;;;;;29.57;21.07;;;10.20;99.90;;;;;;4929604;28;20493;-35
2024/03/07 02:42:58;;;;;;;32.43;20.27;;;10.20;99.90;;;;;;4910054;28;20438;-31
2024/03/07 02:45:26;;;;;;;32.87;20.47;;;10.20;99.90;;;;;;4925457;29;20459;-35
2024/03/07 02:47:57;;;;;;;30.17;21.17;;;10.20;99.90;;;;;;4947767;28;20514;-30
2024/03/07 02:50:24;;;;;;;32.20;21.30;;;10.20;99.90;;;;;;4925862;28;20435;-29
2024/03/07 02:52:52;;;;;;;33.93;21.17;;;10.20;99.90;;;;;;4910665;29;20463;-25
2024/03/07 02:55:20;;;;;;;32.10;20.40;;;10.20;99.90;;;;;;4908455;29;20475;-25
2024/03/07 02:57:54;;;;;;;29.00;20.30;;;10.20;99.90;;;;;;4943014;28;20455;-29
2024/03/07 03:00:20;;;;;;;31.30;21.57;;;10.20;99.90;;;;;;4927382;29;21069;-26
2024/03/07 03:02:49;;;;;;;31.37;21.63;;;10.20;99.90;;;;;;4925976;29;20517;-26
2024/03/07 03:05:16;;;;;;;28.87;20.20;;;10.20;99.90;;;;;;4924712;28;20482;-31
2024/03/07 03:07:42;;;;;;;31.37;20.03;;;10.20;99.90;;;;;;4942619;29;20881;-31
2024/03/07 03:10:09;;;;;;;34.30;21.53;;;10.10;99.90;;;;;;4925590;28;20463;-27
2024/03/07 03:12:39;;;;;;;31.20;21.70;;;10.10;99.90;;;;;;4924961;29;20578;-28
2024/03/07 03:15:11;;;;;;;30.80;21.57;;;10.10;99.90;;;;;;4925023;29;20479;-29
2024/03/07 03:17:37;;;;;;;29.37;22.07;;;10.10;99.90;;;;;;4942506;28;20461;-30
2024/03/07 03:20:15;;;;;;;30.93;20.87;;;10.10;99.90;;;;;;4943177;28;20904;-30
2024/03/07 03:22:43;;;;;;;28.70;20.70;;;10.10;99.90;;;;;;4925508;29;20471;-28
2024/03/07 03:25:10;;;;;;;32.43;22.70;;;10.10;99.90;;;;;;4925301;29;20993;-26
2024/03/07 03:27:36;;;;;;;28.17;19.50;;;10.10;99.90;;;;;;4943134;28;20430;-28
2024/03/07 03:30:04;;;;;;;30.97;20.07;;;10.10;99.90;;;;;;4926121;28;20455;-28
2024/03/07 03:32:31;;;;;;;29.83;20.40;;;10.10;99.90;;;;;;4943731;28;20459;-29
2024/03/07 03:34:59;;;;;;;31.10;22.20;;;10.10;99.90;;;;;;4942723;28;20478;-29
2024/03/07 03:37:25;;;;;;;30.60;20.67;;;10.10;99.90;;;;;;4911320;28;20431;-29
2024/03/07 03:39:51;;;;;;;32.07;21.77;;;10.10;99.90;;;;;;4949300;28;20926;-28
2024/03/07 03:42:17;;;;;;;32.30;21.63;;;10.10;99.90;;;;;;4944702;28;20438;-29
2024/03/07 03:44:48;;;;;;;33.40;21.93;;;10.10;99.90;;;;;;4947297;28;20455;-27
2024/03/07 03:47:21;;;;;;;33.13;21.90;;;10.10;99.90;;;;;;4927223;28;20431;-32
2024/03/07 03:49:47;;;;;;;34.20;22.47;;;10.10;99.90;;;;;;4943006;28;20445;-30
2024/03/07 03:52:15;;;;;;;31.00;22.40;;;10.00;99.90;;;;;;4924398;29;20452;-28
2024/03/07 03:54:46;;;;;;;31.20;21.20;;;10.00;99.90;;;;;;4948579;28;21319;-28
2024/03/07 03:57:12;;;;;;;33.97;22.80;;;10.00;99.90;;;;;;4942062;28;20950;-31
2024/03/07 03:59:43;;;;;;;33.37;22.70;;;10.00;99.90;;;;;;4909331;28;20434;-30
2024/03/07 04:02:10;;;;;;;30.90;21.60;;;10.00;99.90;;;;;;4924726;29;20427;-29
2024/03/07 04:04:39;;;;;;;30.77;21.27;;;10.00;99.90;;;;;;4926273;28;20474;-31
2024/03/07 04:07:08;;;;;;;38.40;21.77;;;10.00;99.90;;;;;;4925887;29;20786;-29
2024/03/07 04:09:36;;;;;;;34.23;22.37;;;10.00;99.90;;;;;;4946321;28;20438;-29
2024/03/07 04:12:05;;;;;;;35.07;23.53;;;10.00;99.90;;;;;;4948034;28;20423;-29
2024/03/07 04:14:35;;;;;;;34.83;23.40;;;10.00;99.90;;;;;;4925263;28;20779;-30
2024/03/07 04:17:01;;;;;;;39.43;24.00;;;9.90;99.90;;;;;;4925614;29;20478;-28
2024/03/07 04:19:27;;;;;;;35.33;23.00;;;10.00;99.90;;;;;;4911655;29;20432;-29
2024/03/07 04:21:54;;;;;;;32.40;21.90;;;10.00;99.90;;;;;;4908125;29;20435;-32
2024/03/07 04:24:23;;;;;;;34.00;22.30;;;9.90;99.90;;;;;;4927584;28;20567;-29
2024/03/07 04:26:53;;;;;;;37.03;22.70;;;9.90;99.90;;;;;;4941780;28;21166;-30
2024/03/07 04:29:21;;;;;;;35.03;23.40;;;9.90;99.90;;;;;;4944671;28;20506;-30
2024/03/07 04:31:50;;;;;;;36.50;24.60;;;9.90;99.90;;;;;;4941794;28;20494;-31
2024/03/07 04:34:21;;;;;;;35.43;21.23;;;9.90;99.90;;;;;;4924111;29;20451;-31
2024/03/07 04:36:47;;;;;;;33.60;23.07;;;9.90;99.90;;;;;;4907809;29;20924;-31
2024/03/07 04:39:32;;;;;;;35.43;22.70;;;9.90;99.90;;;;;;4944779;28;20923;-32
2024/03/07 04:42:06;;;;;;;30.93;21.50;;;9.90;99.90;;;;;;4922773;29;20482;-27
2024/03/07 04:44:35;;;;;;;34.97;22.97;;;9.90;99.90;;;;;;4945117;28;20435;-28
2024/03/07 04:47:03;;;;;;;36.30;23.50;;;9.90;99.90;;;;;;4924824;28;21120;-27
2024/03/07 04:49:32;;;;;;;35.77;24.07;;;9.90;99.90;;;;;;4911620;28;20471;-29
2024/03/07 04:52:00;;;;;;;37.30;24.00;;;9.90;99.90;;;;;;4941475;28;20442;-29
2024/03/07 04:54:28;;;;;;;32.07;21.60;;;9.90;99.90;;;;;;4924539;28;20458;-27
2024/03/07 04:56:59;;;;;;;34.90;22.87;;;9.90;99.90;;;;;;4924252;28;21081;-28
2024/03/07 04:59:25;;;;;;;35.97;23.53;;;9.90;99.90;;;;;;4942211;28;20450;-30
2024/03/07 05:01:53;;;;;;;35.30;22.80;;;9.90;99.90;;;;;;4923680;28;20427;-26
2024/03/07 05:04:20;;;;;;;36.40;23.20;;;9.90;99.90;;;;;;4924652;28;20434;-29
2024/03/07 05:06:50;;;;;;;36.97;25.47;;;9.80;99.90;;;;;;4927275;28;20449;-29
2024/03/07 05:09:22;;;;;;;33.13;22.43;;;9.90;99.90;;;;;;4943955;28;20462;-28
2024/03/07 05:11:52;;;;;;;39.90;24.30;;;9.80;99.90;;;;;;4944947;28;20525;-28
2024/03/07 05:14:18;;;;;;;35.40;22.93;;;9.80;99.90;;;;;;4927050;29;20486;-27
2024/03/07 05:16:44;;;;;;;37.10;24.30;;;9.80;99.90;;;;;;4923282;29;20549;-28
2024/03/07 05:19:10;;;;;;;35.60;23.87;;;9.80;99.90;;;;;;4947308;28;20521;-28
2024/03/07 05:21:43;;;;;;;36.70;24.50;;;9.80;99.90;;;;;;4948973;28;20454;-31
2024/03/07 05:24:11;;;;;;;35.50;23.57;;;9.80;99.90;;;;;;4949281;28;20921;-29
2024/03/07 05:26:40;;;;;;;30.57;21.57;;;9.80;99.90;;;;;;4945470;28;20828;-28
2024/03/07 05:29:08;;;;;;;37.67;23.53;;;9.80;99.90;;;;;;4928926;28;21277;-31
2024/03/07 05:31:48;;;;;;;34.03;24.07;;;9.80;99.90;;;;;;4928940;28;20454;-28
2024/03/07 05:34:16;;;;;;;33.13;22.27;;;9.80;99.90;;;;;;4926442;29;20434;-29
2024/03/07 05:36:46;;;;;;;33.03;22.90;;;9.80;99.90;;;;;;4927055;28;20891;-30
2024/03/07 05:39:14;;;;;;;35.57;22.40;;;9.80;99.90;;;;;;4927217;28;20495;-29
2024/03/07 05:41:42;;;;;;;38.30;23.83;;;9.80;99.90;;;;;;4934592;29;20794;-29
2024/03/07 05:44:08;;;;;;;31.30;21.20;;;9.70;99.90;;;;;;4910849;29;20431;-28
2024/03/07 05:46:41;;;;;;;33.30;22.60;;;9.70;99.90;;;;;;4942035;28;20549;-27
2024/03/07 05:49:08;;;;;;;35.97;24.90;;;9.70;99.90;;;;;;4946093;28;20431;-27
2024/03/07 05:51:35;;;;;;;34.40;21.40;;;9.70;99.90;;;;;;4910139;28;20446;-31
2024/03/07 05:54:06;;;;;;;30.53;21.43;;;9.70;99.90;;;;;;4910929;29;21367;-27
2024/03/07 05:56:35;;;;;;;34.13;21.57;;;9.70;99.90;;;;;;4943726;28;20486;-31
2024/03/07 05:59:07;;;;;;;33.30;21.37;;;9.70;99.90;;;;;;4910822;28;20431;-30
2024/03/07 06:01:37;;;;;;;31.03;22.23;;;9.70;99.90;;;;;;4925630;28;21089;-29
2024/03/07 06:04:07;;;;;;;31.17;21.57;;;9.70;99.90;;;;;;4946052;28;20431;-25
2024/03/07 06:06:35;;;;;;;33.40;23.13;;;9.70;99.90;;;;;;4941999;28;20798;-26
2024/03/07 06:09:08;;;;;;;32.40;23.17;;;9.70;99.90;;;;;;4942963;28;21524;-28
2024/03/07 06:11:39;;;;;;;29.17;20.67;;;9.70;99.90;;;;;;4924727;29;20431;-27
2024/03/07 06:14:06;;;;;;;31.60;21.30;;;9.70;99.90;;;;;;4942540;28;20459;-29
2024/03/07 06:16:38;;;;;;;31.90;21.63;;;9.70;99.90;;;;;;4942264;28;21013;-30
2024/03/07 06:19:07;;;;;;;35.50;21.60;;;9.60;99.90;;;;;;4925899;28;20472;-29
2024/03/07 06:21:34;;;;;;;33.30;22.73;;;9.60;99.90;;;;;;4942174;28;20434;-26
2024/03/07 06:24:00;;;;;;;35.80;22.57;;;9.60;99.90;;;;;;4941865;28;20463;-31
2024/03/07 06:29:16;;;;;;;31.47;22.53;;;9.60;99.90;;;;;;4940582;28;20924;-32
2024/03/07 06:31:43;;;;;;;30.30;20.37;;;9.60;99.90;;;;;;4908389;29;20446;-29
2024/03/07 06:34:10;;;;;;;33.57;22.67;;;9.60;99.90;;;;;;4923871;28;20549;-27
2024/03/07 06:36:36;;;;;;;30.73;22.37;;;9.60;99.90;;;;;;4941816;28;20574;-32
2024/03/07 06:39:05;;;;;;;32.77;22.40;;;9.60;99.90;;;;;;4942508;28;20435;-26
2024/03/07 06:41:32;;;;;;;31.20;21.50;;;9.60;99.90;;;;;;4942780;28;20428;-31
2024/03/07 06:43:58;;;;;;;33.93;21.40;;;9.60;99.90;;;;;;4941073;28;20923;-31
2024/03/07 06:46:29;;;;;;;36.80;23.90;;;9.60;99.90;;;;;;4926796;29;20478;-28
2024/03/07 06:48:58;;;;;;;34.17;22.80;;;9.60;99.90;;;;;;4924277;29;20446;-27
2024/03/07 06:51:27;;;;;;;32.60;21.83;;;9.50;99.90;;;;;;4923272;29;20435;-30
2024/03/07 06:53:58;;;;;;;31.17;21.57;;;9.60;99.90;;;;;;4923773;29;20694;-27
2024/03/07 06:56:27;;;;;;;32.10;21.30;;;9.50;99.90;;;;;;4923227;29;20538;-27
2024/03/07 06:58:56;;;;;;;30.67;21.57;;;9.50;99.90;;;;;;4925900;28;20431;-30
2024/03/07 07:01:22;;;;;;;31.97;20.77;;;9.60;99.90;;;;;;4942998;28;20450;-29
2024/03/07 07:03:51;;;;;;;33.97;22.10;;;9.50;99.90;;;;;;4907982;29;20435;-29
2024/03/07 07:06:18;;;;;;;29.87;21.67;;;9.50;99.90;;;;;;4941099;28;20458;-30
2024/03/07 07:08:44;;;;;;;31.20;21.17;;;9.50;99.90;;;;;;4936620;28;20451;-27
2024/03/07 07:11:11;;;;;;;34.87;21.97;;;9.50;99.90;;;;;;4923178;28;20630;-31
2024/03/07 07:13:37;;;;;;;30.47;21.77;;;9.50;99.90;;;;;;4944976;28;20459;-27
2024/03/07 07:16:05;;;;;;;31.60;22.07;;;9.50;99.90;;;;;;4908954;28;20483;-28
2024/03/07 07:18:31;;;;;;;32.40;22.70;;;9.50;99.90;;;;;;4940385;28;20446;-33
2024/03/07 07:20:58;;;;;;;29.40;21.07;;;9.50;99.90;;;;;;4918895;28;20431;-31
2024/03/07 07:23:24;;;;;;;35.60;24.17;;;9.50;99.90;;;;;;4925331;28;21821;-31
2024/03/07 07:25:50;;;;;;;33.57;22.67;;;9.50;99.90;;;;;;4944357;28;20492;-25
2024/03/07 07:28:16;;;;;;;33.20;23.17;;;9.50;99.90;;;;;;4923154;28;21014;-31
2024/03/07 07:30:42;;;;;;;31.40;22.43;;;9.40;99.90;;;;;;4944122;28;20423;-31
2024/03/07 07:33:08;;;;;;;31.47;21.93;;;9.50;99.90;;;;;;4922246;28;20859;-30
2024/03/07 07:35:34;;;;;;;32.10;22.50;;;9.50;99.90;;;;;;4943618;28;20545;-29
2024/03/07 07:38:00;;;;;;;34.90;23.20;;;9.40;99.90;;;;;;4941938;28;20459;-29
2024/03/07 07:40:28;;;;;;;31.50;21.67;;;9.40;99.90;;;;;;4940920;28;20447;-29
2024/03/07 07:42:54;;;;;;;27.90;21.73;;;9.40;99.90;;;;;;4923890;28;20449;-28
2024/03/07 07:45:22;;;;;;;32.53;22.20;;;9.40;99.90;;;;;;4940067;28;20495;-26
2024/03/07 07:47:51;;;;;;;30.63;19.90;;;9.40;99.90;;;;;;4938678;28;20538;-25
2024/03/07 07:50:19;;;;;;;31.90;21.70;;;9.40;99.90;;;;;;4940553;28;20534;-32
2024/03/07 07:52:53;;;;;;;33.37;22.40;;;9.40;99.90;;;;;;4934944;28;20670;-29
2024/03/07 07:55:28;;;;;;;36.90;22.80;;;9.40;99.90;;;;;;4922157;28;20534;-30
2024/03/07 07:57:54;;;;;;;29.87;21.40;;;9.40;99.90;;;;;;4937961;28;20466;-35
2024/03/07 08:00:28;;;;;;;31.07;21.70;;;9.40;99.90;;;;;;4921602;28;20460;-29
2024/03/07 08:02:59;;;;;;;30.20;21.50;;;9.40;99.90;;;;;;4924566;28;20476;-30
2024/03/07 08:05:27;;;;;;;32.20;21.43;;;9.40;99.90;;;;;;4925002;28;20494;-33
2024/03/07 08:07:56;;;;;;;29.80;21.87;;;9.40;99.90;;;;;;4924069;28;20465;-28
2024/03/07 08:10:25;;;;;;;28.67;22.00;;;9.40;99.90;;;;;;4921380;28;20423;-27
2024/03/07 08:12:52;;;;;;;29.30;20.63;;;9.30;99.90;;;;;;4921971;29;20498;-30
2024/03/07 08:15:18;;;;;;;28.63;20.10;;;9.30;99.90;;;;;;4943718;28;20483;-30
2024/03/07 08:17:46;;;;;;;29.80;19.50;;;9.40;99.90;;;;;;4925334;29;20529;-30
2024/03/07 08:20:23;;;;;;;29.20;20.93;;;9.30;99.90;;;;;;4923629;29;21424;-32
2024/03/07 08:22:54;;;;;;;30.37;21.50;;;9.40;99.90;;;;;;4937298;28;20477;-30
2024/03/07 08:25:26;;;;;;;37.10;22.50;;;9.30;99.90;;;;;;4942432;28;20534;-28
2024/03/07 08:27:54;;;;;;;33.00;21.23;;;9.40;99.90;;;;;;4923613;29;20434;-28
2024/03/07 08:30:20;;;;;;;29.10;21.03;;;9.40;99.90;;;;;;4921761;28;20458;-28
2024/03/07 08:32:55;;;;;;;29.33;21.90;;;9.40;99.90;;;;;;4939689;28;20439;-28
2024/03/07 08:35:22;;;;;;;31.50;21.13;;;9.30;99.90;;;;;;4924782;28;20501;-26
2024/03/07 08:37:53;;;;;;;25.23;19.67;;;9.30;99.90;;;;;;4910900;29;20511;-28
2024/03/07 08:40:20;;;;;;;26.87;20.10;;;9.30;99.90;;;;;;4940768;28;20423;-27
2024/03/07 08:42:48;;;;;;;31.63;21.20;;;9.30;99.90;;;;;;4922373;28;20455;-27
2024/03/07 08:45:20;;;;;;;31.00;20.57;;;9.30;99.90;;;;;;4927032;28;20470;-29
2024/03/07 08:47:46;;;;;;;29.27;21.50;;;9.30;99.90;;;;;;4911251;29;20446;-30
2024/03/07 08:50:17;;;;;;;32.23;20.57;;;9.30;99.90;;;;;;4944018;28;20482;-32
2024/03/07 08:52:47;;;;;;;29.00;20.40;;;9.40;99.90;;;;;;4943325;28;20465;-30
2024/03/07 08:55:19;;;;;;;28.83;20.40;;;9.30;99.90;;;;;;4943110;28;20509;-29
2024/03/07 08:57:48;;;;;;;27.13;19.60;;;9.40;99.90;;;;;;4923531;29;20455;-27
2024/03/07 09:00:22;;;;;;;26.70;20.33;;;9.40;99.90;;;;;;4928260;28;20427;-27
2024/03/07 09:02:52;;;;;;;31.47;20.20;;;9.40;99.90;;;;;;4940235;28;20592;-30
2024/03/07 09:05:20;;;;;;;25.70;18.50;;;9.40;99.90;;;;;;4942898;28;20453;-29
2024/03/07 09:07:46;;;;;;;25.70;17.90;;;9.40;99.90;;;;;;4902989;29;20431;-29
2024/03/07 09:10:17;;;;;;;29.57;19.50;;;9.40;99.90;;;;;;4924394;28;21071;-28
2024/03/07 09:12:48;;;;;;;26.50;18.50;;;9.40;99.90;;;;;;4924363;28;20430;-31
2024/03/07 09:15:16;;;;;;;25.00;18.40;;;9.40;99.90;;;;;;4924133;28;20735;-31
2024/03/07 09:17:44;;;;;;;26.00;19.23;;;9.40;99.90;;;;;;4924439;29;20505;-29
2024/03/07 09:20:14;;;;;;;25.57;18.37;;;9.40;99.90;;;;;;4925661;28;20427;-28
2024/03/07 09:22:41;;;;;;;23.90;17.17;;;9.40;99.90;;;;;;4941438;28;20426;-26
2024/03/07 09:25:08;;;;;;;24.20;16.50;;;9.50;99.90;;;;;;4944194;28;20447;-29
2024/03/07 09:27:34;;;;;;;30.70;18.10;;;9.50;99.90;;;;;;4944823;28;20925;-29
2024/03/07 09:30:01;;;;;;;26.20;18.60;;;9.50;99.90;;;;;;4944604;28;20419;-30
2024/03/07 09:32:27;;;;;;;23.90;17.00;;;9.50;99.90;;;;;;4944205;28;20423;-29
2024/03/07 09:34:54;;;;;;;25.60;17.33;;;9.50;99.90;;;;;;4909989;29;20443;-28
2024/03/07 09:37:23;;;;;;;22.67;16.50;;;9.50;99.90;;;;;;4925943;29;20962;-30
2024/03/07 09:39:49;;;;;;;22.53;17.07;;;9.50;99.90;;;;;;4932326;28;21206;-30
2024/03/07 09:42:17;;;;;;;22.43;16.87;;;9.60;99.90;;;;;;4943298;28;20442;-27
2024/03/07 09:44:46;;;;;;;21.37;15.37;;;9.60;99.90;;;;;;4927537;28;20542;-31
2024/03/07 09:47:13;;;;;;;21.00;15.40;;;9.60;99.90;;;;;;4914489;29;20482;-29
2024/03/07 09:49:40;;;;;;;21.87;16.23;;;9.60;99.90;;;;;;4943138;28;20459;-29
2024/03/07 09:52:11;;;;;;;24.87;15.90;;;9.60;99.90;;;;;;4926133;28;20423;-31
2024/03/07 09:54:44;;;;;;;23.47;16.57;;;9.70;99.90;;;;;;4943626;28;20478;-28
2024/03/07 09:57:12;;;;;;;26.20;17.40;;;9.70;99.90;;;;;;4909595;28;21048;-28
2024/03/07 09:59:41;;;;;;;21.47;16.00;;;9.70;99.90;;;;;;4925167;28;20439;-30
2024/03/07 10:02:09;;;;;;;24.50;16.10;;;9.70;99.90;;;;;;4942537;28;20427;-32
2024/03/07 10:04:40;;;;;;;24.33;16.90;;;9.70;99.90;;;;;;4941586;28;20439;-28
2024/03/07 10:07:13;;;;;;;21.87;16.77;;;9.80;99.90;;;;;;4925585;29;20941;-28
2024/03/07 10:09:41;;;;;;;24.30;16.43;;;9.80;99.90;;;;;;4931396;29;20439;-30
2024/03/07 10:12:12;;;;;;;23.73;15.60;;;9.80;99.90;;;;;;4946338;28;20450;-28
2024/03/07 10:14:53;;;;;;;22.97;15.60;;;9.80;99.90;;;;;;4910507;29;20459;-25
2024/03/07 10:17:26;;;;;;;21.87;16.77;;;9.80;99.90;;;;;;4949118;28;20446;-26
2024/03/07 10:19:53;;;;;;;23.80;16.63;;;9.80;99.90;;;;;;4929749;28;20415;-27
2024/03/07 10:22:20;;;;;;;22.50;14.90;;;9.80;99.90;;;;;;4941566;28;20439;-27
2024/03/07 10:24:56;;;;;;;22.70;16.23;;;9.80;99.90;;;;;;4945455;28;20562;-27
2024/03/07 10:27:27;;;;;;;22.50;15.83;;;9.90;99.90;;;;;;4943889;28;20446;-26
2024/03/07 10:29:54;;;;;;;24.50;16.43;;;9.90;99.90;;;;;;4945579;28;20446;-27
2024/03/07 10:32:22;;;;;;;19.70;15.47;;;9.90;99.90;;;;;;4930029;28;20470;-27
2024/03/07 10:34:50;;;;;;;20.77;14.13;;;9.90;99.90;;;;;;4941996;28;20454;-27
2024/03/07 10:37:17;;;;;;;20.00;14.40;;;9.90;99.90;;;;;;4928439;28;20487;-26
2024/03/07 10:39:44;;;;;;;22.33;15.43;;;9.90;99.90;;;;;;4942402;28;20430;-27
2024/03/07 10:42:15;;;;;;;20.47;14.80;;;9.90;99.90;;;;;;4946325;28;20422;-28
2024/03/07 10:44:45;;;;;;;18.80;14.37;;;10.00;99.40;;;;;;4909042;29;20454;-28
2024/03/07 10:47:16;;;;;;;23.33;15.57;;;10.00;99.40;;;;;;4943534;28;20434;-27
2024/03/07 10:50:00;;;;;;;22.07;14.67;;;10.00;99.50;;;;;;4924069;28;20447;-26
2024/03/07 10:52:39;;;;;;;20.80;15.10;;;10.00;99.40;;;;;;4924357;29;20565;-27
2024/03/07 10:55:26;;;;;;;18.20;14.40;;;10.00;99.40;;;;;;4940055;28;20882;-27
2024/03/07 10:58:02;;;;;;;21.40;15.97;;;10.10;99.40;;;;;;4922021;29;20489;-25
2024/03/07 11:00:35;;;;;;;18.63;14.87;;;10.00;99.30;;;;;;4927135;28;20423;-26
2024/03/07 11:03:09;;;;;;;23.30;14.30;;;10.10;99.40;;;;;;4941977;28;20457;-27
2024/03/07 11:05:35;;;;;;;21.33;14.27;;;10.10;99.40;;;;;;4941048;28;20986;-27
2024/03/07 11:08:11;;;;;;;21.13;14.00;;;10.10;99.40;;;;;;4940243;28;21312;-32
2024/03/07 11:10:37;;;;;;;21.97;14.40;;;10.10;99.30;;;;;;4945558;28;20431;-26
2024/03/07 11:13:12;;;;;;;21.10;15.90;;;10.10;99.30;;;;;;4945676;28;20465;-26
2024/03/07 11:15:42;;;;;;;20.93;14.60;;;10.10;99.20;;;;;;4924140;29;20471;-26
2024/03/07 11:18:09;;;;;;;22.90;15.77;;;10.10;99.20;;;;;;4947643;28;21207;-28
2024/03/07 11:20:37;;;;;;;23.50;16.13;;;10.20;99.20;;;;;;4915394;29;20434;-26
2024/03/07 11:23:38;;;;;;;20.90;15.10;;;10.20;99.10;;;;;;4922843;28;20514;-26
2024/03/07 11:26:08;;;;;;;23.47;15.30;;;10.20;99.10;;;;;;4941065;28;20509;-26
2024/03/07 11:28:41;;;;;;;21.63;15.67;;;10.20;99.00;;;;;;4941003;28;20476;-26
2024/03/07 11:31:25;;;;;;;24.13;16.63;;;10.20;99.00;;;;;;4943853;28;20435;-26
2024/03/07 11:34:14;;;;;;;20.87;14.83;;;10.20;99.10;;;;;;4938395;28;20985;-27
2024/03/07 11:36:49;;;;;;;21.53;15.50;;;10.20;99.00;;;;;;4925082;23;20487;-25
2024/03/07 11:39:43;;;;;;;18.30;13.47;;;10.20;99.00;;;;;;4921662;29;20431;-26
2024/03/07 11:42:28;;;;;;;20.47;15.17;;;10.30;99.10;;;;;;4921361;29;20802;-28
2024/03/07 11:44:58;;;;;;;19.13;13.67;;;10.30;99.00;;;;;;4921582;29;20439;-30
2024/03/07 11:47:28;;;;;;;20.00;15.23;;;10.30;99.00;;;;;;4921222;29;20449;-27
2024/03/07 11:49:57;;;;;;;21.57;14.60;;;10.30;99.00;;;;;;4903295;29;20441;-28
2024/03/07 11:52:27;;;;;;;25.97;16.03;;;10.30;99.00;;;;;;4887489;29;20430;-29
2024/03/07 11:55:03;;;;;;;21.00;14.30;;;10.30;99.40;;;;;;4904711;29;20448;-29
2024/03/07 11:57:34;;;;;;;21.17;14.73;;;10.30;99.00;;;;;;4904086;29;20476;-25
2024/03/07 12:00:08;;;;;;;19.47;14.90;;;10.40;99.10;;;;;;4920591;29;20546;-27
2024/03/07 12:02:44;;;;;;;19.80;15.23;;;10.40;99.00;;;;;;4921127;29;20424;-27
2024/03/07 12:05:10;;;;;;;19.57;14.37;;;10.40;99.00;;;;;;4904151;29;20487;-28
2024/03/07 12:07:36;;;;;;;19.67;15.10;;;10.40;98.90;;;;;;4904465;29;20412;-29
2024/03/07 12:10:06;;;;;;;21.63;14.60;;;10.40;98.90;;;;;;4920939;29;20420;-27
2024/03/07 12:12:33;;;;;;;21.60;13.60;;;10.50;98.90;;;;;;4920476;29;20408;-25
2024/03/07 12:14:59;;;;;;;21.33;14.60;;;10.50;98.90;;;;;;4920551;29;20459;-27
2024/03/07 12:17:31;;;;;;;20.33;14.30;;;10.50;98.80;;;;;;4920572;29;20434;-32
2024/03/07 12:20:01;;;;;;;21.53;14.33;;;10.50;98.80;;;;;;4920614;29;20439;-29
2024/03/07 12:22:34;;;;;;;16.47;13.03;;;10.50;98.80;;;;;;4920709;29;20952;-29
2024/03/07 12:25:08;;;;;;;20.70;14.10;;;10.50;98.80;;;;;;4920550;29;20437;-28
2024/03/07 12:27:34;;;;;;;19.10;13.63;;;10.50;98.80;;;;;;4903165;29;20421;-32
2024/03/07 12:30:07;;;;;;;20.27;14.73;;;10.60;98.80;;;;;;4921011;29;20816;-31
2024/03/07 12:32:33;;;;;;;21.57;15.27;;;10.60;98.70;;;;;;4903123;29;20554;-26
2024/03/07 12:35:00;;;;;;;17.10;13.30;;;10.60;98.60;;;;;;4919683;29;20462;-27
2024/03/07 12:37:29;;;;;;;17.30;13.30;;;10.60;98.60;;;;;;4919280;29;20494;-25
2024/03/07 12:40:05;;;;;;;17.40;14.60;;;10.60;98.60;;;;;;4921595;29;21176;-28
2024/03/07 12:42:31;;;;;;;17.40;14.00;;;10.60;98.60;;;;;;4922314;29;20554;-28